createdAt,value
2023-03-19T00:00:32.941Z,101129.25
2023-03-19T00:03:01.225Z,101132.69
2023-03-19T00:05:29.219Z,101123.22
2023-03-19T00:07:57.145Z,101108.34
2023-03-19T00:10:25.033Z,101111.41
2023-03-19T00:12:52.958Z,101108.69
2023-03-19T00:15:22.264Z,101113.19
2023-03-19T00:17:50.190Z,101106.31
2023-03-19T00:20:18.388Z,101106.66
2023-03-19T00:22:46.280Z,101115.09
2023-03-19T00:25:14.174Z,101109.09
2023-03-19T00:27:42.273Z,101109.78
2023-03-19T00:30:11.416Z,101116.56
2023-03-19T00:32:40.800Z,101115.47
2023-03-19T00:35:09.988Z,101128.03
2023-03-19T00:37:38.580Z,101114.00
2023-03-19T00:40:07.936Z,101126.13
2023-03-19T00:42:36.623Z,101125.25
2023-03-19T00:45:04.848Z,101129.69
2023-03-19T00:47:32.746Z,101121.47
2023-03-19T00:50:02.024Z,101116.88
2023-03-19T00:52:29.928Z,101112.63
2023-03-19T00:54:57.901Z,101126.41
2023-03-19T00:57:25.796Z,101123.63
2023-03-19T00:59:53.708Z,101133.91
2023-03-19T01:02:21.681Z,101132.34
2023-03-19T01:04:50.165Z,101134.81
2023-03-19T01:07:19.488Z,101133.78
2023-03-19T01:09:47.411Z,101136.50
2023-03-19T01:12:15.561Z,101137.75
2023-03-19T01:14:43.565Z,101149.19
2023-03-19T01:17:11.488Z,101152.75
2023-03-19T01:19:39.380Z,101156.75
2023-03-19T01:22:07.716Z,101150.69
2023-03-19T01:24:36.978Z,101140.97
2023-03-19T01:27:05.252Z,101146.41
2023-03-19T01:29:33.275Z,101147.56
2023-03-19T01:32:01.324Z,101147.22
2023-03-19T01:34:29.266Z,101154.19
2023-03-19T01:36:57.148Z,101155.78
2023-03-19T01:39:25.088Z,101157.63
2023-03-19T01:41:54.404Z,101147.34
2023-03-19T01:44:27.253Z,101150.94
2023-03-19T01:46:55.971Z,101151.31
2023-03-19T01:49:24.859Z,101147.66
2023-03-19T01:51:53.119Z,101134.47
2023-03-19T01:54:24.015Z,101137.53
2023-03-19T01:56:56.385Z,101124.50
2023-03-19T01:59:29.142Z,101122.03
2023-03-19T02:02:00.110Z,101124.84
2023-03-19T02:04:28.834Z,101121.63
2023-03-19T02:06:57.347Z,101124.16
2023-03-19T02:09:26.416Z,101131.28
2023-03-19T02:11:55.874Z,101133.78
2023-03-19T02:14:23.904Z,101135.38
2023-03-19T02:16:52.261Z,101145.31
2023-03-19T02:19:24.357Z,101140.34
2023-03-19T02:21:52.465Z,101145.09
2023-03-19T02:24:24.363Z,101138.09
2023-03-19T02:26:53.754Z,101128.06
2023-03-19T02:29:21.746Z,101133.25
2023-03-19T02:31:49.636Z,101122.63
2023-03-19T02:34:35.924Z,101118.31
2023-03-19T02:37:08.975Z,101120.78
2023-03-19T02:39:41.598Z,101121.25
2023-03-19T02:42:11.536Z,101121.59
2023-03-19T02:44:39.448Z,101135.81
2023-03-19T02:47:07.744Z,101136.69
2023-03-19T02:49:36.093Z,101128.25
2023-03-19T02:52:04.098Z,101131.91
2023-03-19T02:54:31.998Z,101130.00
2023-03-19T02:56:59.876Z,101129.66
2023-03-19T02:59:29.173Z,101131.06
2023-03-19T03:01:57.173Z,101125.03
2023-03-19T03:04:26.389Z,101126.13
2023-03-19T03:06:54.653Z,101140.75
2023-03-19T03:09:22.621Z,101134.41
2023-03-19T03:11:51.094Z,101136.78
2023-03-19T03:14:19.014Z,101143.03
2023-03-19T03:16:48.901Z,101147.56
2023-03-19T03:19:17.014Z,101152.13
2023-03-19T03:21:44.909Z,101141.41
2023-03-19T03:24:12.867Z,101142.50
2023-03-19T03:26:40.966Z,101145.75
2023-03-19T03:29:09.374Z,101142.19
2023-03-19T03:31:37.413Z,101147.25
2023-03-19T03:34:07.204Z,101142.28
2023-03-19T03:36:35.124Z,101140.03
2023-03-19T03:39:04.226Z,101132.69
2023-03-19T03:41:32.168Z,101131.81
2023-03-19T03:44:00.097Z,101137.00
2023-03-19T03:46:28.014Z,101131.72
2023-03-19T03:48:55.961Z,101126.66
2023-03-19T03:51:25.412Z,101132.38
2023-03-19T03:53:53.309Z,101130.09
2023-03-19T03:56:21.387Z,101128.59
2023-03-19T03:58:49.295Z,101126.19
2023-03-19T04:01:17.706Z,101128.59
2023-03-19T04:03:45.631Z,101134.00
2023-03-19T04:06:15.080Z,101130.97
2023-03-19T04:08:44.364Z,101134.75
2023-03-19T04:11:12.490Z,101132.78
2023-03-19T04:13:40.660Z,101139.06
2023-03-19T04:16:09.852Z,101139.25
2023-03-19T04:18:38.601Z,101134.41
2023-03-19T04:21:07.218Z,101134.94
2023-03-19T04:23:35.309Z,101146.19
2023-03-19T04:26:06.975Z,101141.78
2023-03-19T04:28:35.326Z,101138.47
2023-03-19T04:31:04.581Z,101156.06
2023-03-19T04:33:32.862Z,101166.97
2023-03-19T04:36:01.580Z,101164.09
2023-03-19T04:38:29.557Z,101158.34
2023-03-19T04:40:57.770Z,101162.59
2023-03-19T04:43:27.422Z,101173.44
2023-03-19T04:45:55.856Z,101176.59
2023-03-19T04:48:23.924Z,101181.22
2023-03-19T04:50:53.361Z,101172.91
2023-03-19T04:53:21.585Z,101162.66
2023-03-19T04:55:49.487Z,101174.16
2023-03-19T04:58:17.525Z,101181.50
2023-03-19T05:00:47.641Z,101200.47
2023-03-19T05:03:15.932Z,101248.19
2023-03-19T05:05:44.179Z,101235.75
2023-03-19T05:08:13.734Z,101252.91
2023-03-19T05:10:41.898Z,101244.63
2023-03-19T05:13:09.977Z,101240.94
2023-03-19T05:15:38.888Z,101245.28
2023-03-19T05:18:08.708Z,101244.28
2023-03-19T05:20:37.262Z,101242.03
2023-03-19T05:23:05.221Z,101249.25
2023-03-19T05:25:35.310Z,101241.28
2023-03-19T05:28:03.494Z,101243.22
2023-03-19T05:30:31.966Z,101241.41
2023-03-19T05:33:00.416Z,101250.56
2023-03-19T05:35:30.736Z,101262.75
2023-03-19T05:37:58.875Z,101259.00
2023-03-19T05:40:27.346Z,101265.25
2023-03-19T05:42:55.280Z,101267.72
2023-03-19T05:45:23.249Z,101269.25
2023-03-19T05:47:51.161Z,101285.53
2023-03-19T05:50:19.281Z,101290.41
2023-03-19T05:52:48.606Z,101303.81
2023-03-19T05:55:17.433Z,101300.88
2023-03-19T05:57:45.383Z,101312.66
2023-03-19T06:00:14.909Z,101326.50
2023-03-19T06:02:43.353Z,101328.84
2023-03-19T06:05:11.696Z,101341.16
2023-03-19T06:07:39.636Z,101335.53
2023-03-19T06:10:10.447Z,101350.38
2023-03-19T06:12:38.398Z,101352.06
2023-03-19T06:15:07.544Z,101354.69
2023-03-19T06:17:35.450Z,101359.63
2023-03-19T06:20:03.520Z,101360.38
2023-03-19T06:22:31.412Z,101358.00
2023-03-19T06:24:59.582Z,101359.75
2023-03-19T06:27:28.890Z,101362.66
2023-03-19T06:29:56.800Z,101369.59
2023-03-19T06:32:24.690Z,101381.47
2023-03-19T06:34:52.630Z,101387.72
2023-03-19T06:37:20.524Z,101401.88
2023-03-19T06:39:48.951Z,101390.97
2023-03-19T06:42:17.137Z,101406.31
2023-03-19T06:44:46.651Z,101412.47
2023-03-19T06:47:15.391Z,101414.00
2023-03-19T06:49:43.299Z,101424.81
2023-03-19T06:52:11.371Z,101426.53
2023-03-19T06:54:39.407Z,101438.00
2023-03-19T06:57:07.436Z,101437.66
2023-03-19T06:59:35.356Z,101443.50
2023-03-19T07:02:05.570Z,101445.13
2023-03-19T07:04:33.765Z,101450.19
2023-03-19T07:07:02.575Z,101455.03
2023-03-19T07:09:30.690Z,101457.66
2023-03-19T07:11:58.618Z,101464.56
2023-03-19T07:14:26.709Z,101463.03
2023-03-19T07:16:54.580Z,101462.34
2023-03-19T07:19:24.012Z,101463.53
2023-03-19T07:21:51.921Z,101459.81
2023-03-19T07:24:19.819Z,101466.13
2023-03-19T07:26:47.820Z,101469.63
2023-03-19T07:29:15.806Z,101463.66
2023-03-19T07:31:43.730Z,101468.84
2023-03-19T07:34:11.643Z,101467.75
2023-03-19T07:36:41.065Z,101464.00
2023-03-19T07:39:09.010Z,101467.97
2023-03-19T07:41:36.904Z,101459.72
2023-03-19T07:44:04.945Z,101458.56
2023-03-19T07:46:39.363Z,101458.31
2023-03-19T07:49:07.765Z,101461.31
2023-03-19T07:51:35.866Z,101458.72
2023-03-19T07:54:32.481Z,101450.88
2023-03-19T07:57:00.637Z,101451.25
2023-03-19T07:59:28.617Z,101456.91
2023-03-19T08:01:56.660Z,101439.91
2023-03-19T08:04:24.574Z,101438.75
2023-03-19T08:06:52.545Z,101437.69
2023-03-19T08:09:22.216Z,101436.09
2023-03-19T08:11:50.251Z,101427.97
2023-03-19T08:14:22.507Z,101429.59
2023-03-19T08:17:08.322Z,101426.53
2023-03-19T08:19:36.351Z,101436.91
2023-03-19T08:22:10.956Z,101430.38
2023-03-19T08:24:40.428Z,101416.81
2023-03-19T08:27:08.512Z,101408.06
2023-03-19T08:29:37.276Z,101406.66
2023-03-19T08:32:05.485Z,101384.28
2023-03-19T08:34:34.464Z,101378.56
2023-03-19T08:37:02.362Z,101360.59
2023-03-19T08:39:30.431Z,101350.31
2023-03-19T08:44:47.150Z,101334.97
2023-03-19T08:47:15.183Z,101324.91
2023-03-19T08:49:43.318Z,101310.59
2023-03-19T08:52:13.368Z,101298.22
2023-03-19T08:54:41.324Z,101288.94
2023-03-19T08:57:26.358Z,101281.44
2023-03-19T09:00:37.327Z,101285.91
2023-03-19T09:03:06.886Z,101283.03
2023-03-19T09:05:34.800Z,101275.59
2023-03-19T09:08:02.795Z,101284.78
2023-03-19T09:10:30.788Z,101272.66
2023-03-19T09:13:01.711Z,101264.41
2023-03-19T09:15:31.037Z,101267.44
2023-03-19T09:18:01.939Z,101265.03
2023-03-19T09:20:29.888Z,101262.78
2023-03-19T09:22:57.828Z,101257.09
2023-03-19T09:25:25.779Z,101252.19
2023-03-19T09:27:53.722Z,101236.91
2023-03-19T09:30:21.866Z,101240.72
2023-03-19T09:32:51.274Z,101227.47
2023-03-19T09:35:19.294Z,101230.50
2023-03-19T09:37:47.368Z,101222.78
2023-03-19T09:40:23.118Z,101218.19
2023-03-19T09:42:58.736Z,101214.94
2023-03-19T09:45:28.963Z,101215.50
2023-03-19T09:48:04.305Z,101211.66
2023-03-19T09:50:34.769Z,101210.22
2023-03-19T09:53:07.932Z,101212.19
2023-03-19T09:55:42.197Z,101206.31
2023-03-19T09:58:16.684Z,101211.00
2023-03-19T10:00:46.005Z,101199.09
2023-03-19T10:03:39.435Z,101190.53
2023-03-19T10:06:19.718Z,101193.19
2023-03-19T10:09:20.035Z,101189.28
2023-03-19T10:11:59.580Z,101183.72
2023-03-19T10:14:42.759Z,101186.44
2023-03-19T10:17:14.368Z,101189.34
2023-03-19T10:19:50.284Z,101189.97
2023-03-19T10:22:21.267Z,101189.28
2023-03-19T10:24:53.590Z,101187.69
2023-03-19T10:27:24.395Z,101183.63
2023-03-19T10:29:52.314Z,101186.69
2023-03-19T10:32:21.976Z,101179.47
2023-03-19T10:34:53.962Z,101174.47
2023-03-19T10:37:26.633Z,101179.56
2023-03-19T10:39:58.643Z,101177.41
2023-03-19T10:42:36.935Z,101174.13
2023-03-19T10:45:07.301Z,101178.28
2023-03-19T10:47:39.630Z,101180.31
2023-03-19T10:50:11.735Z,101180.34
2023-03-19T10:52:39.627Z,101175.19
2023-03-19T10:55:15.154Z,101171.50
2023-03-19T10:57:44.493Z,101179.63
2023-03-19T11:00:19.006Z,101174.00
2023-03-19T11:02:51.587Z,101175.31
2023-03-19T11:05:31.663Z,101177.41
2023-03-19T11:08:02.297Z,101174.31
2023-03-19T11:10:31.654Z,101174.38
2023-03-19T11:13:01.778Z,101169.06
2023-03-19T11:15:36.146Z,101173.88
2023-03-19T11:18:08.839Z,101177.47
2023-03-19T11:20:39.660Z,101172.00
2023-03-19T11:23:14.773Z,101170.06
2023-03-19T11:25:47.989Z,101177.22
2023-03-19T11:28:20.984Z,101178.88
2023-03-19T11:30:54.879Z,101181.91
2023-03-19T11:33:36.424Z,101175.59
2023-03-19T11:36:13.032Z,101182.06
2023-03-19T11:38:49.619Z,101185.25
2023-03-19T11:41:24.888Z,101185.34
2023-03-19T11:43:56.664Z,101181.72
2023-03-19T11:46:33.512Z,101186.09
2023-03-19T11:49:13.859Z,101178.00
2023-03-19T11:51:47.542Z,101181.81
2023-03-19T11:54:23.797Z,101185.13
2023-03-19T11:56:57.195Z,101183.38
2023-03-19T11:59:45.355Z,101182.91
2023-03-19T12:02:40.356Z,101181.59
2023-03-19T12:05:17.248Z,101182.00
2023-03-19T12:07:59.555Z,101187.16
2023-03-19T12:10:31.279Z,101186.56
2023-03-19T12:13:08.461Z,101183.38
2023-03-19T12:15:41.204Z,101183.16
2023-03-19T12:18:16.530Z,101176.66
2023-03-19T12:20:56.414Z,101178.84
2023-03-19T12:23:42.139Z,101182.97
2023-03-19T12:26:11.498Z,101180.03
2023-03-19T12:28:42.962Z,101177.06
2023-03-19T12:31:37.464Z,101173.28
2023-03-19T12:34:24.957Z,101179.03
2023-03-19T12:36:56.267Z,101178.16
2023-03-19T12:39:28.174Z,101179.72
2023-03-19T12:41:58.335Z,101181.16
2023-03-19T12:44:30.733Z,101184.88
2023-03-19T12:47:03.742Z,101171.94
2023-03-19T12:49:36.381Z,101173.47
2023-03-19T12:52:09.888Z,101171.44
2023-03-19T12:54:42.885Z,101167.38
2023-03-19T12:57:16.135Z,101170.69
2023-03-19T12:59:48.419Z,101172.31
2023-03-19T13:02:20.355Z,101170.63
2023-03-19T13:04:53.513Z,101167.72
2023-03-19T13:07:24.217Z,101172.53
2023-03-19T13:09:55.237Z,101183.16
2023-03-19T13:12:24.888Z,101177.66
2023-03-19T13:14:58.212Z,101176.75
2023-03-19T13:17:31.750Z,101171.25
2023-03-19T13:20:00.862Z,101172.34
2023-03-19T13:22:31.534Z,101173.13
2023-03-19T13:25:01.865Z,101166.19
2023-03-19T13:27:32.644Z,101164.56
2023-03-19T13:30:08.024Z,101168.66
2023-03-19T13:32:39.172Z,101161.72
2023-03-19T13:35:18.380Z,101166.19
2023-03-19T13:37:56.298Z,101172.56
2023-03-19T13:40:43.864Z,101160.16
2023-03-19T13:43:40.969Z,101151.78
2023-03-19T13:46:37.845Z,101153.53
2023-03-19T13:49:30.445Z,101155.34
2023-03-19T13:52:01.724Z,101153.81
2023-03-19T13:54:40.127Z,101162.38
2023-03-19T13:57:35.665Z,101171.09
2023-03-19T14:00:43.677Z,101166.38
2023-03-19T14:03:21.789Z,101173.06
2023-03-19T14:05:51.817Z,101165.63
2023-03-19T14:08:22.058Z,101162.22
2023-03-19T14:10:54.857Z,101172.81
2023-03-19T14:13:31.364Z,101173.22
2023-03-19T14:16:07.166Z,101175.38
2023-03-19T14:18:40.736Z,101176.13
2023-03-19T14:21:13.158Z,101181.88
2023-03-19T14:23:46.506Z,101183.22
2023-03-19T14:26:19.024Z,101186.75
2023-03-19T14:28:54.748Z,101191.91
2023-03-19T14:31:36.237Z,101192.50
2023-03-19T14:34:08.845Z,101188.78
2023-03-19T14:36:44.105Z,101194.56
2023-03-19T14:39:19.768Z,101195.72
2023-03-19T14:41:50.780Z,101192.16
2023-03-19T14:44:50.451Z,101189.31
2023-03-19T14:47:26.200Z,101196.78
2023-03-19T14:50:25.842Z,101199.31
2023-03-19T14:52:59.783Z,101197.00
2023-03-19T14:55:35.119Z,101203.69
2023-03-19T14:58:03.664Z,101202.22
2023-03-19T15:00:39.502Z,101189.53
2023-03-19T15:03:19.579Z,101196.38
2023-03-19T15:05:50.260Z,101202.88
2023-03-19T15:08:22.682Z,101207.16
2023-03-19T15:10:59.383Z,101206.28
2023-03-19T15:13:36.800Z,101205.91
2023-03-19T15:16:31.711Z,101207.28
2023-03-19T15:18:59.716Z,101198.19
2023-03-19T15:21:27.921Z,101170.91
2023-03-19T15:23:56.043Z,101177.72
2023-03-19T15:26:34.276Z,101175.94
2023-03-19T15:29:04.238Z,101172.41
2023-03-19T15:31:54.784Z,101176.66
2023-03-19T15:34:31.825Z,101172.53
2023-03-19T15:37:04.014Z,101177.03
2023-03-19T15:39:35.471Z,101175.84
2023-03-19T15:42:07.086Z,101176.31
2023-03-19T15:44:38.442Z,101175.63
2023-03-19T15:47:10.172Z,101171.88
2023-03-19T15:49:40.540Z,101174.44
2023-03-19T15:52:12.187Z,101171.13
2023-03-19T15:54:40.554Z,101174.13
2023-03-19T15:57:09.505Z,101177.91
2023-03-19T15:59:37.797Z,101172.91
2023-03-19T16:02:18.587Z,101177.06
2023-03-19T16:05:13.975Z,101173.91
2023-03-19T16:07:42.749Z,101178.53
2023-03-19T16:10:42.712Z,101182.59
2023-03-19T16:13:29.287Z,101191.97
2023-03-19T16:16:02.396Z,101194.69
2023-03-19T16:18:41.623Z,101204.41
2023-03-19T16:21:11.741Z,101204.78
2023-03-19T16:23:42.535Z,101219.75
2023-03-19T16:26:19.559Z,101220.50
2023-03-19T16:28:58.616Z,101215.25
2023-03-19T16:31:29.133Z,101212.31
2023-03-19T16:33:58.654Z,101214.19
2023-03-19T16:36:30.128Z,101227.25
2023-03-19T16:39:00.194Z,101228.53
2023-03-19T16:41:33.778Z,101228.09
2023-03-19T16:44:16.854Z,101236.41
2023-03-19T16:46:44.979Z,101236.84
2023-03-19T16:49:14.296Z,101239.88
2023-03-19T16:51:42.302Z,101241.19
2023-03-19T16:54:12.651Z,101249.50
2023-03-19T16:56:40.610Z,101236.28
2023-03-19T16:59:13.790Z,101239.00
2023-03-19T17:01:41.716Z,101239.56
2023-03-19T17:04:17.623Z,101244.84
2023-03-19T17:06:45.728Z,101256.34
2023-03-19T17:09:14.333Z,101255.34
2023-03-19T17:11:43.717Z,101252.06
2023-03-19T17:14:15.636Z,101255.34
2023-03-19T17:16:48.446Z,101266.13
2023-03-19T17:19:20.526Z,101265.84
2023-03-19T17:21:48.755Z,101268.69
2023-03-19T17:24:24.148Z,101268.97
2023-03-19T17:26:52.688Z,101271.13
2023-03-19T17:29:23.092Z,101271.56
2023-03-19T17:31:51.595Z,101271.97
2023-03-19T17:34:23.534Z,101278.81
2023-03-19T17:36:56.101Z,101279.63
2023-03-19T17:39:24.739Z,101284.53
2023-03-19T17:41:53.833Z,101287.09
2023-03-19T17:44:21.853Z,101294.19
2023-03-19T17:46:51.472Z,101290.69
2023-03-19T17:49:23.036Z,101291.91
2023-03-19T17:51:51.477Z,101303.44
2023-03-19T17:54:19.932Z,101299.72
2023-03-19T17:56:47.864Z,101308.47
2023-03-19T17:59:15.801Z,101314.31
2023-03-19T18:01:44.184Z,101325.06
2023-03-19T18:04:14.291Z,101316.69
2023-03-19T18:06:45.972Z,101324.28
2023-03-19T18:09:20.240Z,101332.09
2023-03-19T18:11:48.178Z,101338.50
2023-03-19T18:14:16.083Z,101340.44
2023-03-19T18:16:44.514Z,101336.94
2023-03-19T18:19:20.042Z,101344.59
2023-03-19T18:21:49.361Z,101345.88
2023-03-19T18:24:17.327Z,101350.31
2023-03-19T18:26:45.350Z,101354.03
2023-03-19T18:29:13.297Z,101358.97
2023-03-19T18:31:41.908Z,101361.28
2023-03-19T18:34:12.321Z,101370.31
2023-03-19T18:36:40.502Z,101385.09
2023-03-19T18:39:12.447Z,101385.31
2023-03-19T18:41:40.386Z,101393.16
2023-03-19T18:44:09.209Z,101392.94
2023-03-19T18:46:38.591Z,101430.63
2023-03-19T18:49:09.072Z,101429.69
2023-03-19T18:51:37.002Z,101437.50
2023-03-19T18:54:05.436Z,101432.59
2023-03-19T18:56:34.861Z,101434.69
2023-03-19T18:59:12.936Z,101432.97
2023-03-19T19:01:40.825Z,101438.41
2023-03-19T19:04:08.776Z,101430.84
2023-03-19T19:06:47.342Z,101440.13
2023-03-19T19:09:15.840Z,101450.09
2023-03-19T19:11:47.757Z,101461.38
2023-03-19T19:14:19.767Z,101460.91
2023-03-19T19:16:47.903Z,101465.56
2023-03-19T19:19:19.134Z,101466.69
2023-03-19T19:21:47.190Z,101484.13
2023-03-19T19:24:15.330Z,101492.22
2023-03-19T19:26:45.457Z,101489.22
2023-03-19T19:29:20.713Z,101494.03
2023-03-19T19:31:48.644Z,101501.34
2023-03-19T19:34:17.285Z,101506.97
2023-03-19T19:36:45.362Z,101524.56
2023-03-19T19:39:13.285Z,101521.78
2023-03-19T19:41:43.770Z,101525.00
2023-03-19T19:44:18.209Z,101524.94
2023-03-19T19:46:46.299Z,101534.53
2023-03-19T19:49:14.617Z,101531.88
2023-03-19T19:51:42.593Z,101542.78
2023-03-19T19:54:10.614Z,101549.47
2023-03-19T19:56:39.191Z,101545.34
2023-03-19T19:59:08.933Z,101554.03
2023-03-19T20:01:38.449Z,101550.44
2023-03-19T20:04:06.806Z,101558.00
2023-03-19T20:06:34.749Z,101555.88
2023-03-19T20:09:02.682Z,101558.00
2023-03-19T20:11:32.320Z,101564.16
2023-03-19T20:14:00.509Z,101562.91
2023-03-19T20:16:29.579Z,101566.25
2023-03-19T20:18:58.933Z,101564.09
2023-03-19T20:21:29.012Z,101570.09
2023-03-19T20:23:59.017Z,101582.00
2023-03-19T20:26:27.122Z,101587.94
2023-03-19T20:28:55.972Z,101586.69
2023-03-19T20:34:38.714Z,101581.47
2023-03-19T20:37:07.431Z,101583.97
2023-03-19T20:39:35.396Z,101586.66
2023-03-19T20:42:24.591Z,101596.06
2023-03-19T20:44:58.525Z,101598.03
2023-03-19T20:47:26.870Z,101606.59
2023-03-19T20:49:56.455Z,101602.59
2023-03-19T20:52:24.384Z,101608.63
2023-03-19T20:54:52.780Z,101615.00
2023-03-19T20:57:26.667Z,101614.19
2023-03-19T20:59:54.659Z,101605.81
2023-03-19T21:02:24.474Z,101609.28
2023-03-19T21:04:53.227Z,101620.50
2023-03-19T21:07:29.790Z,101634.72
2023-03-19T21:10:01.206Z,101636.91
2023-03-19T21:12:31.097Z,101648.16
2023-03-19T21:15:08.408Z,101646.22
2023-03-19T21:17:36.438Z,101660.53
2023-03-19T21:20:04.466Z,101663.88
2023-03-19T21:22:33.846Z,101677.69
2023-03-19T21:25:04.821Z,101676.19
2023-03-19T21:27:33.424Z,101666.84
2023-03-19T21:30:01.391Z,101677.00
2023-03-19T21:32:29.340Z,101680.97
2023-03-19T21:34:57.264Z,101683.31
2023-03-19T21:37:25.193Z,101689.56
2023-03-19T21:39:54.524Z,101700.44
2023-03-19T21:42:23.378Z,101701.66
2023-03-19T21:44:53.563Z,101709.34
2023-03-19T21:47:22.965Z,101701.34
2023-03-19T21:49:51.536Z,101706.72
2023-03-19T21:52:21.677Z,101707.03
2023-03-19T21:54:49.795Z,101706.31
2023-03-19T21:57:19.381Z,101710.06
2023-03-19T21:59:47.671Z,101710.59
2023-03-19T22:02:40.759Z,101702.72
2023-03-19T22:05:32.472Z,101704.72
2023-03-19T22:08:00.425Z,101711.75
2023-03-19T22:10:29.817Z,101708.75
2023-03-19T22:12:59.215Z,101716.66
2023-03-19T22:15:34.929Z,101721.19
2023-03-19T22:18:03.726Z,101718.00
2023-03-19T22:20:32.049Z,101718.25
2023-03-19T22:22:59.966Z,101720.03
2023-03-19T22:25:31.205Z,101727.06
2023-03-19T22:28:00.687Z,101723.44
2023-03-19T22:30:35.657Z,101741.84
2023-03-19T22:33:04.624Z,101736.16
2023-03-19T22:35:32.810Z,101745.91
2023-03-19T22:38:01.274Z,101751.41
2023-03-19T22:40:29.302Z,101752.84
2023-03-19T22:42:57.198Z,101757.16
2023-03-19T22:45:28.913Z,101758.63
2023-03-19T22:47:57.943Z,101755.34
2023-03-19T22:50:27.940Z,101752.72
2023-03-19T22:52:56.609Z,101760.56
2023-03-19T22:55:24.807Z,101754.91
2023-03-19T22:57:52.733Z,101756.53
2023-03-19T23:00:23.880Z,101756.75
2023-03-19T23:02:57.490Z,101761.66
2023-03-19T23:05:42.374Z,101763.59
2023-03-19T23:08:13.741Z,101763.91
2023-03-19T23:10:43.321Z,101773.13
2023-03-19T23:13:12.483Z,101777.47
2023-03-19T23:15:40.419Z,101775.34
2023-03-19T23:18:17.436Z,101785.41
2023-03-19T23:20:46.423Z,101782.59
2023-03-19T23:23:15.369Z,101793.31
2023-03-19T23:25:44.242Z,101787.59
2023-03-19T23:28:18.664Z,101798.53
2023-03-19T23:30:46.831Z,101800.59
2023-03-19T23:33:16.966Z,101808.41
2023-03-19T23:35:45.050Z,101816.31
2023-03-19T23:38:13.214Z,101820.09
2023-03-19T23:40:44.805Z,101820.97
2023-03-19T23:43:19.697Z,101818.38
2023-03-19T23:45:47.898Z,101815.00
2023-03-19T23:48:18.883Z,101812.50
2023-03-19T23:50:47.864Z,101809.78
2023-03-19T23:53:19.830Z,101816.75
2023-03-19T23:55:48.618Z,101813.56
2023-03-19T23:58:16.934Z,101820.53
